createdAt,value
2017-08-31T00:00:02.689Z,21.52
2017-08-31T00:01:02.717Z,21.35
2017-08-31T00:02:02.751Z,21.38
2017-08-31T00:03:02.754Z,21.4
2017-08-31T00:04:02.794Z,21.47
2017-08-31T00:05:17.439Z,21.54
2017-08-31T00:06:02.816Z,21.5
2017-08-31T00:07:02.865Z,21.42
2017-08-31T00:08:02.891Z,21.42
2017-08-31T00:09:02.933Z,21.4
2017-08-31T00:11:02.972Z,21.38
2017-08-31T00:12:02.989Z,21.37
2017-08-31T00:13:03.019Z,21.28
2017-08-31T00:14:03.041Z,21.32
2017-08-31T00:15:03.071Z,21.21
2017-08-31T00:17:02.809Z,21.21
2017-08-31T00:18:03.177Z,21.1
2017-08-31T00:19:03.184Z,21.13
2017-08-31T00:20:03.188Z,21.1
2017-08-31T00:21:17.833Z,21.07
2017-08-31T00:22:02.936Z,21.04
2017-08-31T00:24:03.295Z,21.14
2017-08-31T00:25:03.325Z,21.07
2017-08-31T00:26:03.351Z,21.1
2017-08-31T00:27:03.422Z,21.17
2017-08-31T00:28:03.401Z,21.16
2017-08-31T00:29:18.042Z,21.12
2017-08-31T00:30:03.456Z,21.07
2017-08-31T00:31:03.461Z,21.01
2017-08-31T00:33:03.224Z,20.98
2017-08-31T00:34:03.245Z,20.92
2017-08-31T00:35:03.872Z,20.91
2017-08-31T00:36:03.607Z,20.88
2017-08-31T00:37:18.250Z,20.89
2017-08-31T00:38:03.664Z,20.89
2017-08-31T00:39:03.679Z,20.85
2017-08-31T00:40:03.725Z,20.84
2017-08-31T00:41:18.353Z,20.76
2017-08-31T00:42:03.776Z,20.82
2017-08-31T00:43:18.400Z,20.8
2017-08-31T00:44:03.814Z,20.79
2017-08-31T00:45:03.839Z,20.89
2017-08-31T00:46:03.869Z,20.89
2017-08-31T00:47:18.495Z,20.88
2017-08-31T00:48:03.898Z,20.88
2017-08-31T00:49:03.948Z,20.88
2017-08-31T00:50:03.957Z,20.8
2017-08-31T00:51:04.005Z,20.77
2017-08-31T00:52:04.014Z,20.76
2017-08-31T00:53:18.656Z,20.73
2017-08-31T00:54:04.068Z,20.72
2017-08-31T00:55:04.086Z,20.64
2017-08-31T00:57:04.186Z,20.67
2017-08-31T00:58:03.857Z,20.69
2017-08-31T00:59:04.201Z,20.72
2017-08-31T01:00:04.212Z,20.74
2017-08-31T01:02:03.962Z,20.73
2017-08-31T01:04:04.020Z,20.8
2017-08-31T01:05:04.347Z,20.82
2017-08-31T01:06:04.079Z,20.77
2017-08-31T01:07:04.399Z,20.84
2017-08-31T01:08:18.724Z,20.87
2017-08-31T01:09:19.052Z,20.84
2017-08-31T01:10:04.478Z,20.92
2017-08-31T01:11:04.492Z,20.98
2017-08-31T01:12:04.532Z,20.95
2017-08-31T01:13:04.557Z,21.12
2017-08-31T01:14:04.271Z,21.07
2017-08-31T01:15:04.620Z,21.14
2017-08-31T01:16:04.637Z,21.24
2017-08-31T01:17:04.648Z,21.25
2017-08-31T01:18:04.356Z,21.19
2017-08-31T01:19:04.696Z,21.22
2017-08-31T01:21:04.759Z,21.34
2017-08-31T01:22:04.771Z,21.21
2017-08-31T01:23:04.799Z,21.21
2017-08-31T01:24:04.824Z,21.38
2017-08-31T01:25:04.860Z,21.27
2017-08-31T01:26:04.876Z,21.37
2017-08-31T01:27:04.618Z,21.4
2017-08-31T01:28:04.941Z,21.31
2017-08-31T01:29:04.955Z,21.34
2017-08-31T01:30:05.000Z,21.35
2017-08-31T01:31:05.003Z,21.35
2017-08-31T01:32:05.035Z,21.35
2017-08-31T01:33:05.051Z,21.49
2017-08-31T01:34:05.083Z,21.49
2017-08-31T01:35:05.093Z,21.58
2017-08-31T01:36:05.138Z,21.54
2017-08-31T01:37:19.458Z,21.61
2017-08-31T01:38:05.189Z,21.59
2017-08-31T01:39:05.193Z,21.69
2017-08-31T01:40:19.847Z,21.71
2017-08-31T01:41:05.285Z,21.67
2017-08-31T01:42:05.293Z,21.71
2017-08-31T01:43:05.305Z,21.79
2017-08-31T01:44:19.953Z,21.75
2017-08-31T01:45:05.062Z,21.84
2017-08-31T01:46:20.001Z,21.84
2017-08-31T01:47:05.420Z,21.91
2017-08-31T01:48:05.438Z,21.86
2017-08-31T01:49:05.526Z,21.88
2017-08-31T01:50:05.482Z,21.96
2017-08-31T01:51:05.209Z,21.99
2017-08-31T01:52:05.529Z,21.92
2017-08-31T01:53:05.574Z,22.03
2017-08-31T01:54:05.597Z,21.98
2017-08-31T01:56:20.266Z,22.09
2017-08-31T01:57:05.655Z,22.15
2017-08-31T01:58:05.703Z,22.1
2017-08-31T01:59:05.705Z,22.17
2017-08-31T02:00:05.745Z,22.17
2017-08-31T02:01:20.378Z,22.21
2017-08-31T02:02:05.797Z,22.21
2017-08-31T02:03:05.795Z,22.25
2017-08-31T02:04:05.839Z,22.39
2017-08-31T02:05:05.861Z,22.25
2017-08-31T02:06:05.893Z,22.35
2017-08-31T02:07:05.289Z,22.31
2017-08-31T02:09:05.962Z,22.27
2017-08-31T02:10:06.012Z,22.18
2017-08-31T02:11:06.033Z,22.24
2017-08-31T02:12:20.651Z,22.27
2017-08-31T02:13:06.090Z,22.3
2017-08-31T02:14:06.086Z,22.37
2017-08-31T02:15:20.739Z,22.39
2017-08-31T02:16:06.162Z,22.37
2017-08-31T02:17:06.180Z,22.4
2017-08-31T02:18:05.883Z,22.33
2017-08-31T02:21:06.282Z,22.33
2017-08-31T02:22:06.297Z,22.4
2017-08-31T02:23:06.335Z,22.37
2017-08-31T02:24:06.333Z,22.28
2017-08-31T02:25:06.373Z,22.28
2017-08-31T02:26:06.413Z,22.3
2017-08-31T02:27:06.441Z,22.39
2017-08-31T02:28:21.077Z,22.37
2017-08-31T02:29:06.498Z,22.42
2017-08-31T02:30:06.505Z,22.45
2017-08-31T02:31:06.521Z,22.46
2017-08-31T02:32:06.562Z,22.49
2017-08-31T02:33:06.580Z,22.49
2017-08-31T02:34:06.613Z,22.49
2017-08-31T02:35:06.630Z,22.52
2017-08-31T02:36:06.674Z,22.47
2017-08-31T02:37:06.679Z,22.6
2017-08-31T02:38:06.709Z,22.61
2017-08-31T02:39:06.745Z,22.55
2017-08-31T02:40:06.780Z,22.54
2017-08-31T02:41:06.784Z,22.47
2017-08-31T02:42:06.798Z,22.52
2017-08-31T02:43:21.461Z,22.55
2017-08-31T02:44:06.869Z,22.57
2017-08-31T02:45:06.584Z,22.57
2017-08-31T02:46:06.904Z,22.6
2017-08-31T02:47:06.945Z,22.55
2017-08-31T02:48:06.966Z,22.51
2017-08-31T02:49:21.604Z,22.57
2017-08-31T02:50:07.007Z,22.61
2017-08-31T02:51:07.046Z,22.61
2017-08-31T02:52:07.090Z,22.61
2017-08-31T02:53:07.088Z,22.55
2017-08-31T02:54:07.120Z,22.61
2017-08-31T02:55:07.131Z,22.61
2017-08-31T02:56:21.793Z,22.67
2017-08-31T02:57:07.214Z,22.58
2017-08-31T02:58:07.219Z,22.58
2017-08-31T02:59:07.258Z,22.61
2017-08-31T03:00:07.265Z,22.6
2017-08-31T03:01:07.293Z,22.51
2017-08-31T03:02:07.321Z,22.51
2017-08-31T03:03:07.357Z,22.54
2017-08-31T03:04:07.409Z,22.57
2017-08-31T03:05:07.387Z,22.57
2017-08-31T03:06:07.427Z,22.54
2017-08-31T03:07:07.460Z,22.52
2017-08-31T03:08:07.474Z,22.55
2017-08-31T03:09:07.493Z,22.62
2017-08-31T03:10:07.546Z,22.67
2017-08-31T03:11:07.226Z,22.67
2017-08-31T03:12:07.626Z,22.7
2017-08-31T03:13:07.606Z,22.73
2017-08-31T03:14:07.636Z,22.72
2017-08-31T03:15:22.284Z,22.62
2017-08-31T03:16:07.355Z,22.57
2017-08-31T03:17:07.411Z,22.61
2017-08-31T03:18:07.416Z,22.52
2017-08-31T03:19:07.761Z,22.49
2017-08-31T03:20:07.481Z,22.46
2017-08-31T03:21:07.812Z,22.37
2017-08-31T03:22:07.540Z,22.45
2017-08-31T03:23:07.878Z,22.4
2017-08-31T03:24:07.884Z,22.42
2017-08-31T03:25:07.924Z,22.49
2017-08-31T03:26:07.945Z,22.42
2017-08-31T03:27:22.267Z,22.4
2017-08-31T03:28:07.987Z,22.42
2017-08-31T03:29:08.028Z,22.43
2017-08-31T03:30:08.056Z,22.51
2017-08-31T03:31:22.692Z,22.49
2017-08-31T03:32:08.084Z,22.37
2017-08-31T03:33:07.805Z,22.43
2017-08-31T03:34:08.147Z,22.43
2017-08-31T03:35:07.863Z,22.49
2017-08-31T03:36:08.180Z,22.47
2017-08-31T03:38:07.944Z,22.45
2017-08-31T03:40:08.307Z,22.33
2017-08-31T03:41:08.323Z,22.37
2017-08-31T03:43:08.372Z,22.28
2017-08-31T03:44:08.404Z,22.37
2017-08-31T03:45:08.444Z,22.35
2017-08-31T03:46:08.448Z,22.31
2017-08-31T03:47:23.089Z,22.28
2017-08-31T03:48:08.184Z,22.35
2017-08-31T03:49:23.129Z,22.43
2017-08-31T03:50:08.557Z,22.37
2017-08-31T03:51:08.568Z,22.36
2017-08-31T03:52:08.292Z,22.31
2017-08-31T03:53:08.628Z,22.22
2017-08-31T03:54:08.332Z,22.31
2017-08-31T03:55:08.687Z,22.25
2017-08-31T03:56:23.319Z,22.24
2017-08-31T03:58:08.459Z,22.33
2017-08-31T03:59:08.762Z,22.31
2017-08-31T04:00:08.512Z,22.24
2017-08-31T04:01:08.825Z,22.27
2017-08-31T04:02:08.867Z,22.28
2017-08-31T04:03:23.502Z,22.27
2017-08-31T04:04:08.596Z,22.2
2017-08-31T04:05:08.967Z,22.25
2017-08-31T04:06:08.975Z,22.28
2017-08-31T04:07:08.972Z,22.24
2017-08-31T04:08:09.022Z,22.22
2017-08-31T04:09:23.648Z,22.27
2017-08-31T04:10:09.064Z,22.31
2017-08-31T04:12:08.813Z,22.25
2017-08-31T04:13:09.143Z,22.2
2017-08-31T04:14:08.535Z,22.27
2017-08-31T04:15:09.205Z,22.2
2017-08-31T04:16:09.211Z,22.24
2017-08-31T04:17:09.253Z,22.2
2017-08-31T04:18:23.889Z,22.06
2017-08-31T04:19:09.301Z,22.24
2017-08-31T04:20:09.329Z,22.24
2017-08-31T04:21:09.365Z,22.24
2017-08-31T04:22:09.381Z,22.17
2017-08-31T04:23:09.402Z,22.18
2017-08-31T04:24:09.418Z,22.17
2017-08-31T04:25:09.464Z,22.28
2017-08-31T04:26:09.473Z,22.31
2017-08-31T04:27:09.481Z,22.31
2017-08-31T04:28:09.218Z,22.28
2017-08-31T04:29:09.564Z,22.28
2017-08-31T04:30:09.265Z,22.36
2017-08-31T04:31:09.596Z,22.36
2017-08-31T04:32:09.642Z,22.27
2017-08-31T04:33:09.342Z,22.28
2017-08-31T04:35:09.385Z,22.24
2017-08-31T04:36:09.432Z,22.27
2017-08-31T04:37:09.762Z,22.31
2017-08-31T04:39:09.806Z,22.31
2017-08-31T04:40:09.829Z,22.28
2017-08-31T04:41:09.866Z,22.3
2017-08-31T04:42:09.864Z,22.24
2017-08-31T04:43:24.524Z,22.31
2017-08-31T04:44:09.939Z,22.36
2017-08-31T04:45:09.953Z,22.36
2017-08-31T04:46:10.000Z,22.42
2017-08-31T04:47:09.695Z,22.55
2017-08-31T04:48:10.029Z,22.47
2017-08-31T04:49:10.085Z,22.42
2017-08-31T04:50:24.690Z,22.37
2017-08-31T04:51:09.835Z,22.45
2017-08-31T04:52:09.819Z,22.37
2017-08-31T04:53:09.853Z,22.31
2017-08-31T04:54:09.888Z,22.3
2017-08-31T04:55:09.913Z,22.27
2017-08-31T04:56:10.241Z,22.42
2017-08-31T04:57:09.942Z,22.43
2017-08-31T04:58:10.293Z,22.31
2017-08-31T04:59:10.006Z,22.31
2017-08-31T05:00:10.030Z,22.25
2017-08-31T05:01:10.058Z,22.31
2017-08-31T05:02:24.702Z,22.36
2017-08-31T05:03:09.805Z,22.36
2017-08-31T05:04:10.445Z,22.46
2017-08-31T05:05:10.474Z,22.54
2017-08-31T05:06:25.110Z,22.49
2017-08-31T05:07:10.230Z,22.49
2017-08-31T05:08:10.230Z,22.51
2017-08-31T05:09:10.580Z,22.46
2017-08-31T05:10:24.895Z,22.43
2017-08-31T05:11:10.629Z,22.45
2017-08-31T05:12:10.658Z,22.46
2017-08-31T05:13:10.700Z,22.52
2017-08-31T05:14:10.687Z,22.49
2017-08-31T05:15:10.736Z,22.55
2017-08-31T05:16:10.130Z,22.54
2017-08-31T05:17:10.482Z,22.57
2017-08-31T05:18:10.792Z,22.64
2017-08-31T05:19:10.831Z,22.76
2017-08-31T05:20:10.854Z,22.67
2017-08-31T05:21:10.883Z,22.82
2017-08-31T05:22:25.523Z,22.9
2017-08-31T05:23:10.935Z,22.83
2017-08-31T05:24:10.981Z,22.9
2017-08-31T05:25:10.967Z,22.88
2017-08-31T05:26:11.018Z,22.88
2017-08-31T05:27:11.037Z,22.92
2017-08-31T05:28:11.069Z,22.97
2017-08-31T05:29:11.085Z,22.97
2017-08-31T05:30:11.128Z,22.98
2017-08-31T05:31:11.159Z,22.97
2017-08-31T05:32:11.161Z,23.05
2017-08-31T05:33:11.194Z,23.01
2017-08-31T05:35:11.236Z,23.15
2017-08-31T05:36:10.963Z,23.27
2017-08-31T05:37:11.315Z,23.23
2017-08-31T05:38:25.942Z,23.32
2017-08-31T05:39:11.343Z,23.31
2017-08-31T05:41:11.401Z,23.36
2017-08-31T05:42:11.429Z,23.47
2017-08-31T05:43:11.474Z,23.46
2017-08-31T05:44:11.167Z,23.46
2017-08-31T05:45:11.501Z,23.43
2017-08-31T05:46:11.596Z,23.28
2017-08-31T05:47:11.559Z,23.35
2017-08-31T05:48:11.582Z,23.28
2017-08-31T05:49:11.593Z,23.39
2017-08-31T05:50:11.644Z,23.43
2017-08-31T05:51:11.646Z,23.42
2017-08-31T05:52:11.692Z,23.46
2017-08-31T05:53:26.325Z,23.42
2017-08-31T05:55:11.771Z,23.39
2017-08-31T05:57:11.825Z,23.43
2017-08-31T05:59:11.855Z,23.54
2017-08-31T06:00:11.908Z,23.51
2017-08-31T06:01:11.944Z,23.73
2017-08-31T06:02:11.955Z,23.91
2017-08-31T06:04:12.016Z,24.18
2017-08-31T06:05:12.028Z,24.22
2017-08-31T06:07:12.083Z,24.58
2017-08-31T06:08:11.806Z,24.52
2017-08-31T06:09:11.818Z,24.77
2017-08-31T06:10:11.850Z,25.02
2017-08-31T06:11:11.891Z,25.08
2017-08-31T06:12:11.915Z,25.2
2017-08-31T06:13:12.235Z,25.3
2017-08-31T06:14:11.988Z,25.32
2017-08-31T06:15:11.987Z,25.35
2017-08-31T06:16:12.354Z,25.64
2017-08-31T06:17:12.341Z,26.02
2017-08-31T06:18:12.391Z,26.37
2017-08-31T06:19:12.111Z,26.4
2017-08-31T06:20:12.461Z,26.37
2017-08-31T06:21:12.163Z,26.54
2017-08-31T06:22:12.503Z,26.91
2017-08-31T06:23:12.534Z,27.1
2017-08-31T06:24:12.247Z,27.4
2017-08-31T06:25:27.216Z,27.67
2017-08-31T06:26:12.621Z,27.75
2017-08-31T06:27:12.656Z,28
2017-08-31T06:28:12.731Z,28.29
2017-08-31T06:30:12.744Z,28.64
2017-08-31T06:31:12.468Z,28.77
2017-08-31T06:32:12.821Z,29.11
2017-08-31T06:33:12.852Z,29.05
2017-08-31T06:34:12.874Z,29.33
2017-08-31T06:35:12.914Z,29.36
2017-08-31T06:36:12.928Z,29.41
2017-08-31T06:37:12.673Z,29.61
2017-08-31T06:38:13.297Z,29.76
2017-08-31T06:39:13.045Z,29.73
2017-08-31T06:40:13.052Z,29.58
2017-08-31T06:41:27.728Z,29.16
2017-08-31T06:42:13.135Z,29.05
2017-08-31T06:43:13.180Z,28.74
2017-08-31T06:44:13.203Z,28.55
2017-08-31T06:45:12.931Z,28.62
2017-08-31T06:46:13.279Z,28.59
2017-08-31T06:47:13.307Z,28.54
2017-08-31T06:48:13.358Z,28.48
2017-08-31T06:49:13.372Z,28.43
2017-08-31T06:50:13.419Z,28.59
2017-08-31T06:51:13.438Z,28.74
2017-08-31T06:52:13.481Z,29.04
2017-08-31T06:53:13.499Z,29.36
2017-08-31T06:54:13.550Z,29.42
2017-08-31T06:55:13.565Z,29.46
2017-08-31T06:56:13.302Z,29.52
2017-08-31T06:57:28.235Z,29.87
2017-08-31T06:58:13.348Z,30.02
2017-08-31T06:59:13.698Z,30.01
2017-08-31T07:00:13.718Z,29.9
2017-08-31T07:01:13.761Z,29.71
2017-08-31T07:02:13.810Z,29.73
2017-08-31T07:03:13.831Z,29.71
2017-08-31T07:04:13.868Z,30.01
2017-08-31T07:05:13.886Z,30.19
2017-08-31T07:06:13.938Z,30.17
2017-08-31T07:07:13.966Z,30.13
2017-08-31T07:08:13.999Z,30.31
2017-08-31T07:09:14.044Z,30.53
2017-08-31T07:10:14.067Z,30.61
2017-08-31T07:11:28.725Z,30.75
2017-08-31T07:12:14.132Z,30.65
2017-08-31T07:13:28.786Z,30.84
2017-08-31T07:14:14.211Z,30.83
2017-08-31T07:15:14.241Z,30.99
2017-08-31T07:16:14.277Z,30.8
2017-08-31T07:17:14.319Z,31.07
2017-08-31T07:18:14.354Z,31.17
2017-08-31T07:19:14.381Z,31.48
2017-08-31T07:20:29.024Z,31.72
2017-08-31T07:21:14.418Z,31.81
2017-08-31T07:22:14.483Z,31.73
2017-08-31T07:23:14.501Z,31.36
2017-08-31T07:24:14.553Z,31.41
2017-08-31T07:25:14.590Z,31.48
2017-08-31T07:26:14.623Z,31.78
2017-08-31T07:28:28.992Z,31.73
2017-08-31T07:29:14.726Z,31.91
2017-08-31T07:30:14.447Z,32.07
2017-08-31T07:31:14.799Z,32.26
2017-08-31T07:32:14.833Z,32.22
2017-08-31T07:33:14.863Z,32.04
2017-08-31T07:34:14.916Z,32.19
2017-08-31T07:35:14.939Z,32.03
2017-08-31T07:36:14.667Z,32.13
2017-08-31T07:37:15.001Z,32.22
2017-08-31T07:38:29.652Z,32.4
2017-08-31T07:39:15.087Z,32.18
2017-08-31T07:40:14.804Z,31.93
2017-08-31T07:41:15.146Z,32.18
2017-08-31T07:42:15.191Z,32.28
2017-08-31T07:43:15.210Z,32.45
2017-08-31T07:44:15.265Z,32.48
2017-08-31T07:45:15.305Z,32.41
2017-08-31T07:46:15.027Z,32.41
2017-08-31T07:47:15.364Z,32.69
2017-08-31T07:48:15.407Z,32.33
2017-08-31T07:49:15.455Z,32.18
2017-08-31T07:50:15.479Z,32.19
2017-08-31T07:51:15.213Z,32.3
2017-08-31T07:52:15.550Z,32.25
2017-08-31T07:53:15.593Z,32.63
2017-08-31T07:54:15.312Z,32.85
2017-08-31T07:55:15.656Z,33.12
2017-08-31T07:56:15.687Z,33.47
2017-08-31T07:57:15.731Z,33.41
2017-08-31T07:58:15.500Z,33.65
2017-08-31T07:59:15.806Z,33.54
2017-08-31T08:00:30.458Z,33.29
2017-08-31T08:01:15.872Z,33.22
2017-08-31T08:02:15.912Z,33.22
2017-08-31T08:03:15.962Z,33.22
2017-08-31T08:04:16.003Z,33.44
2017-08-31T08:05:16.004Z,33.38
2017-08-31T08:06:16.052Z,33.42
2017-08-31T08:07:16.100Z,33.51
2017-08-31T08:08:15.818Z,33.49
2017-08-31T08:09:16.161Z,33.57
2017-08-31T08:10:30.808Z,33.45
2017-08-31T08:11:16.240Z,33.54
2017-08-31T08:12:15.956Z,33.59
2017-08-31T08:13:16.296Z,33.6
2017-08-31T08:14:16.027Z,33.57
2017-08-31T08:15:16.370Z,33.75
2017-08-31T08:16:31.023Z,33.75
2017-08-31T08:17:16.443Z,33.88
2017-08-31T08:18:16.481Z,33.84
2017-08-31T08:19:16.522Z,33.78
2017-08-31T08:20:16.563Z,33.65
2017-08-31T08:21:16.599Z,34.1
2017-08-31T08:22:16.624Z,33.84
2017-08-31T08:23:16.668Z,33.63
2017-08-31T08:24:16.690Z,33.59
2017-08-31T08:25:16.749Z,33.71
2017-08-31T08:26:16.772Z,33.44
2017-08-31T08:27:16.510Z,33.47
2017-08-31T08:28:16.832Z,33.28
2017-08-31T08:29:16.873Z,33.31
2017-08-31T08:30:16.932Z,33.39
2017-08-31T08:31:31.557Z,33.16
2017-08-31T08:32:31.611Z,33.28
2017-08-31T08:33:16.724Z,33.32
2017-08-31T08:34:17.061Z,33.73
2017-08-31T08:35:16.793Z,33.47
2017-08-31T08:36:17.130Z,33.65
2017-08-31T08:38:17.214Z,33.57
2017-08-31T08:39:17.290Z,33.54
2017-08-31T08:40:16.968Z,33.45
2017-08-31T08:41:17.307Z,33.57
2017-08-31T08:42:17.021Z,33.56
2017-08-31T08:44:32.045Z,33.66
2017-08-31T08:45:17.465Z,33.69
2017-08-31T08:46:17.506Z,33.79
2017-08-31T08:47:17.534Z,33.81
2017-08-31T08:48:31.872Z,33.57
2017-08-31T08:49:17.605Z,33.65
2017-08-31T08:50:17.632Z,33.82
2017-08-31T08:52:17.719Z,33.15
2017-08-31T08:53:17.731Z,33.11
2017-08-31T08:54:17.776Z,33.16
2017-08-31T08:55:17.824Z,33.28
2017-08-31T08:56:17.858Z,33.59
2017-08-31T08:57:17.896Z,33.63
2017-08-31T08:58:17.639Z,33.61
2017-08-31T08:59:17.972Z,33.86
2017-08-31T09:00:17.994Z,33.42
2017-08-31T09:01:18.044Z,32.89
2017-08-31T09:02:18.052Z,32.93
2017-08-31T09:03:32.715Z,33.01
2017-08-31T09:04:18.160Z,32.96
2017-08-31T09:05:18.175Z,32.89
2017-08-31T09:06:32.826Z,33.45
2017-08-31T09:07:17.924Z,33.56
2017-08-31T09:08:18.285Z,33.57
2017-08-31T09:09:18.309Z,33.63
2017-08-31T09:10:18.353Z,33.86
2017-08-31T09:11:18.393Z,33.66
2017-08-31T09:12:18.421Z,32.7
2017-08-31T09:13:18.448Z,32.22
2017-08-31T09:14:18.466Z,32.04
2017-08-31T09:15:18.524Z,31.91
2017-08-31T09:16:18.561Z,31.81
2017-08-31T09:17:18.602Z,31.75
2017-08-31T09:18:18.631Z,31.7
2017-08-31T09:20:18.369Z,31.63
2017-08-31T09:21:18.752Z,31.89
2017-08-31T09:23:18.802Z,31.43
2017-08-31T09:24:18.513Z,31.68
2017-08-31T09:25:18.557Z,31.75
2017-08-31T09:26:18.605Z,31.93
2017-08-31T09:27:18.921Z,32.14
2017-08-31T09:28:18.665Z,32.13
2017-08-31T09:29:19.006Z,32.33
2017-08-31T09:30:19.051Z,32.15
2017-08-31T09:31:19.076Z,31.86
2017-08-31T09:32:18.478Z,31.81
2017-08-31T09:33:18.823Z,31.93
2017-08-31T09:34:18.847Z,31.96
2017-08-31T09:35:33.504Z,31.76
2017-08-31T09:36:19.245Z,31.88
2017-08-31T09:37:19.278Z,31.73
2017-08-31T09:38:19.308Z,31.53
2017-08-31T09:39:19.346Z,31.34
2017-08-31T09:40:19.378Z,31.41
2017-08-31T09:41:19.406Z,31.78
2017-08-31T09:42:19.439Z,32.03
2017-08-31T09:43:19.497Z,32.44
2017-08-31T09:45:19.553Z,33.51
2017-08-31T09:46:19.572Z,33.88
2017-08-31T09:48:19.335Z,33.82
2017-08-31T09:49:19.677Z,33.66
2017-08-31T09:50:19.692Z,33.71
2017-08-31T09:51:34.416Z,33.93
2017-08-31T09:52:19.767Z,34.31
2017-08-31T09:53:19.805Z,34.42
2017-08-31T09:54:19.839Z,34.25
2017-08-31T09:55:19.889Z,34.3
2017-08-31T09:56:19.907Z,34.37
2017-08-31T09:57:19.625Z,34.72
2017-08-31T09:58:34.602Z,34.47
2017-08-31T09:59:19.689Z,34.53
2017-08-31T10:00:19.727Z,34.05
2017-08-31T10:01:20.058Z,33.71
2017-08-31T10:02:19.815Z,33.44
2017-08-31T10:03:20.153Z,33.15
2017-08-31T10:04:19.873Z,33.14
2017-08-31T10:05:19.887Z,33.19
2017-08-31T10:06:19.940Z,33.44
2017-08-31T10:07:34.892Z,33.44
2017-08-31T10:08:34.931Z,33.26
2017-08-31T10:09:20.408Z,33.29
2017-08-31T10:10:20.057Z,32.94
2017-08-31T10:11:20.102Z,32.79
2017-08-31T10:12:20.451Z,32.63
2017-08-31T10:13:35.093Z,32.44
2017-08-31T10:14:20.524Z,32.5
2017-08-31T10:15:20.535Z,32.52
2017-08-31T10:16:20.571Z,32.45
2017-08-31T10:17:35.226Z,32.38
2017-08-31T10:18:20.341Z,32.14
2017-08-31T10:19:20.371Z,31.93
2017-08-31T10:20:20.749Z,32.03
2017-08-31T10:21:20.751Z,31.76
2017-08-31T10:22:20.771Z,31.76
2017-08-31T10:23:35.427Z,31.8
2017-08-31T10:24:20.842Z,31.84
2017-08-31T10:25:20.873Z,31.88
2017-08-31T10:26:20.908Z,31.92
2017-08-31T10:27:20.625Z,31.78
2017-08-31T10:28:20.966Z,31.73
2017-08-31T10:29:20.693Z,31.66
2017-08-31T10:30:21.055Z,31.46
2017-08-31T10:31:21.082Z,31.46
2017-08-31T10:33:21.135Z,30.67
2017-08-31T10:34:20.855Z,30.58
2017-08-31T10:35:21.197Z,30.64
2017-08-31T10:36:21.223Z,30.42
2017-08-31T10:37:21.276Z,30.58
2017-08-31T10:38:35.609Z,30.76
2017-08-31T10:39:21.321Z,30.62
2017-08-31T10:40:20.746Z,30.45
2017-08-31T10:41:21.079Z,30.55
2017-08-31T10:43:21.452Z,30.89
2017-08-31T10:44:21.180Z,31.06
2017-08-31T10:45:21.544Z,31.04
2017-08-31T10:46:21.543Z,31.04
2017-08-31T10:47:21.275Z,30.95
2017-08-31T10:48:21.611Z,30.89
2017-08-31T10:49:21.331Z,30.84
2017-08-31T10:50:21.659Z,30.91
2017-08-31T10:51:21.399Z,30.82
2017-08-31T10:52:21.106Z,30.77
2017-08-31T10:53:21.770Z,30.79
2017-08-31T10:54:36.410Z,30.62
2017-08-31T10:55:21.214Z,30.65
2017-08-31T10:56:21.869Z,30.65
2017-08-31T10:57:21.872Z,30.62
2017-08-31T10:58:21.930Z,30.7
2017-08-31T10:59:21.641Z,30.79
2017-08-31T11:00:21.682Z,30.58
2017-08-31T11:01:22.024Z,30.61
2017-08-31T11:02:21.429Z,30.72
2017-08-31T11:03:22.083Z,30.91
2017-08-31T11:04:22.315Z,30.92
2017-08-31T11:05:21.834Z,31.02
2017-08-31T11:06:36.807Z,31.09
2017-08-31T11:07:22.207Z,30.69
2017-08-31T11:08:22.238Z,30.65
2017-08-31T11:09:22.363Z,30.62
2017-08-31T11:10:36.930Z,30.75
2017-08-31T11:11:22.436Z,30.95
2017-08-31T11:12:22.490Z,31.02
2017-08-31T11:13:22.512Z,30.95
2017-08-31T11:14:22.420Z,30.98
2017-08-31T11:16:22.666Z,31.04
2017-08-31T11:17:22.763Z,31.19
2017-08-31T11:18:22.660Z,31.31
2017-08-31T11:19:22.678Z,31.35
2017-08-31T11:20:22.785Z,31.44
2017-08-31T11:21:22.023Z,31.29
2017-08-31T11:22:22.886Z,31.23
2017-08-31T11:23:22.812Z,31.43
2017-08-31T11:24:22.755Z,31.62
2017-08-31T11:25:22.830Z,31.81
2017-08-31T11:26:37.424Z,31.75
2017-08-31T11:27:23.607Z,31.78
2017-08-31T11:28:23.210Z,31.86
2017-08-31T11:29:23.308Z,31.76
2017-08-31T11:30:37.710Z,31.58
2017-08-31T11:31:23.547Z,31.46
2017-08-31T11:32:22.884Z,31.54
2017-08-31T11:33:23.035Z,31.5
2017-08-31T11:34:23.571Z,31.5
2017-08-31T11:35:23.383Z,31.46
2017-08-31T11:36:23.111Z,31.58
2017-08-31T11:37:23.516Z,31.54
2017-08-31T11:38:23.291Z,31.53
2017-08-31T11:39:23.418Z,31.43
2017-08-31T11:40:23.236Z,31.36
2017-08-31T11:41:23.277Z,31.39
2017-08-31T11:42:37.909Z,30.98
2017-08-31T11:43:23.333Z,30.77
2017-08-31T11:44:23.366Z,30.88
2017-08-31T11:45:23.425Z,31.04
2017-08-31T11:46:38.053Z,30.95
2017-08-31T11:48:23.294Z,30.91
2017-08-31T11:49:23.209Z,30.92
2017-08-31T11:50:23.355Z,31.09
2017-08-31T11:51:23.592Z,30.94
2017-08-31T11:52:23.314Z,30.79
2017-08-31T11:53:23.353Z,30.82
2017-08-31T11:54:23.354Z,30.61
2017-08-31T11:55:23.522Z,30.32
2017-08-31T11:56:23.419Z,30.24
2017-08-31T11:57:23.778Z,30.11
2017-08-31T11:58:38.415Z,30.11
2017-08-31T11:59:23.941Z,30.17
2017-08-31T12:00:38.170Z,30.35
2017-08-31T12:01:23.894Z,30.45
2017-08-31T12:02:24.177Z,30.42
2017-08-31T12:03:24.060Z,30.62
2017-08-31T12:04:23.354Z,30.49
2017-08-31T12:05:23.410Z,30.46
2017-08-31T12:07:23.668Z,30.51
2017-08-31T12:08:23.480Z,30.6
2017-08-31T12:09:24.161Z,30.64
2017-08-31T12:10:23.650Z,30.6
2017-08-31T12:11:23.901Z,30.75
2017-08-31T12:12:23.936Z,30.61
2017-08-31T12:13:38.886Z,30.57
2017-08-31T12:14:24.512Z,30.47
2017-08-31T12:15:24.341Z,30.42
2017-08-31T12:16:24.054Z,30.53
2017-08-31T12:17:24.088Z,30.53
2017-08-31T12:18:24.584Z,30.57
2017-08-31T12:19:24.488Z,30.61
2017-08-31T12:20:24.181Z,30.82
2017-08-31T12:21:24.219Z,30.79
2017-08-31T12:22:24.554Z,30.91
2017-08-31T12:23:24.586Z,30.61
2017-08-31T12:24:24.621Z,30.47
2017-08-31T12:25:24.462Z,30.2
2017-08-31T12:26:24.679Z,30.11
2017-08-31T12:27:24.840Z,30.04
2017-08-31T12:28:24.521Z,29.58
2017-08-31T12:29:24.767Z,29.63
2017-08-31T12:30:24.909Z,29.76
2017-08-31T12:31:24.927Z,29.64
2017-08-31T12:32:24.874Z,29.8
2017-08-31T12:33:24.883Z,30.07
2017-08-31T12:34:24.921Z,30.08
2017-08-31T12:35:24.985Z,30.24
2017-08-31T12:36:24.977Z,30.34
2017-08-31T12:37:24.999Z,30.1
2017-08-31T12:38:25.037Z,30.32
2017-08-31T12:39:25.079Z,30.39
2017-08-31T12:40:25.104Z,30.61
2017-08-31T12:41:25.136Z,30.43
2017-08-31T12:42:25.149Z,30.55
2017-08-31T12:43:25.183Z,30.6
2017-08-31T12:44:25.222Z,30.64
2017-08-31T12:45:39.558Z,30.35
2017-08-31T12:46:25.080Z,30.31
2017-08-31T12:47:39.613Z,30.46
2017-08-31T12:48:25.044Z,30.42
2017-08-31T12:50:25.404Z,30.42
2017-08-31T12:51:25.554Z,30.38
2017-08-31T12:52:25.572Z,30.53
2017-08-31T12:53:25.482Z,30.46
2017-08-31T12:54:25.529Z,30.37
2017-08-31T12:55:25.569Z,30.39
2017-08-31T12:56:25.285Z,30.43
2017-08-31T12:57:25.303Z,30.39
2017-08-31T12:58:25.337Z,30.29
2017-08-31T12:59:25.571Z,30.15
2017-08-31T13:00:25.401Z,30.01
2017-08-31T13:01:40.039Z,29.82
2017-08-31T13:02:25.932Z,29.55
2017-08-31T13:03:25.501Z,29.41
2017-08-31T13:04:25.962Z,28.88
2017-08-31T13:05:25.703Z,28.39
2017-08-31T13:06:25.978Z,27.74
2017-08-31T13:07:25.910Z,27.43
2017-08-31T13:08:25.733Z,27.37
2017-08-31T13:09:25.359Z,26.88
2017-08-31T13:10:25.488Z,26.55
2017-08-31T13:11:25.833Z,26.72
2017-08-31T13:12:40.377Z,26.48
2017-08-31T13:13:25.799Z,26.33
2017-08-31T13:14:25.829Z,26.02
2017-08-31T13:15:25.892Z,25.88
2017-08-31T13:16:26.208Z,26.05
2017-08-31T13:17:40.833Z,26.18
2017-08-31T13:18:40.552Z,26.05
2017-08-31T13:19:25.970Z,25.91
2017-08-31T13:20:26.334Z,25.8
2017-08-31T13:21:40.954Z,25.54
2017-08-31T13:23:26.384Z,25.18
2017-08-31T13:24:26.102Z,25.05
2017-08-31T13:26:26.461Z,25.05
2017-08-31T13:27:26.511Z,25.08
2017-08-31T13:28:26.540Z,25.15
2017-08-31T13:29:26.580Z,25.27
2017-08-31T13:30:26.587Z,25.05
2017-08-31T13:31:26.627Z,24.96
2017-08-31T13:32:26.430Z,24.83
2017-08-31T13:33:41.395Z,24.77
2017-08-31T13:34:26.718Z,24.6
2017-08-31T13:35:26.418Z,24.42
2017-08-31T13:36:26.775Z,23.91
2017-08-31T13:37:26.889Z,23.69